Time;durP1;ratioP1;P1;durP2;ratioP2;P2;SDS_P1;SDS_P2;PMS_P1;PMS_P2;Temp;Humidity;BMP_temperature;BMP_pressure;BME280_temperature;BME280_humidity;BME280_pressure;Samples;Min_cycle;Max_cycle;Signal;HPM_P1;HPM_P2
2023/05/21 00:00:23;;;;;;;3.20;3.00;;;;;;;;;;4995820;28;20053;-30
2023/05/21 00:02:50;;;;;;;3.08;2.88;;;;;;;;;;4995308;28;20398;-30
2023/05/21 00:05:17;;;;;;;3.35;3.15;;;;;;;;;;4995134;28;20054;-31
2023/05/21 00:07:44;;;;;;;3.35;3.15;;;;;;;;;;4978174;28;20033;-28
2023/05/21 00:10:10;;;;;;;3.08;2.90;;;;;;;;;;4995717;28;20041;-30
2023/05/21 00:12:36;;;;;;;3.08;2.88;;;;;;;;;;4995549;28;20113;-29
2023/05/21 00:15:03;;;;;;;2.85;2.75;;;;;;;;;;4995541;28;20370;-27
2023/05/21 00:17:29;;;;;;;3.17;2.97;;;;;;;;;;4978185;28;20453;-30
2023/05/21 00:19:58;;;;;;;3.00;2.80;;;;;;;;;;4995497;28;20086;-30
2023/05/21 00:22:25;;;;;;;3.30;3.10;;;;;;;;;;4995376;28;20030;-29
2023/05/21 00:24:51;;;;;;;3.38;3.17;;;;;;;;;;4995058;28;20034;-31
2023/05/21 00:27:17;;;;;;;2.78;2.67;;;;;;;;;;4995457;28;20103;-26
2023/05/21 00:29:43;;;;;;;3.40;3.20;;;;;;;;;;4995427;28;20026;-32
2023/05/21 00:32:09;;;;;;;2.72;2.63;;;;;;;;;;4995299;28;20327;-31
2023/05/21 00:34:36;;;;;;;2.97;2.85;;;;;;;;;;4995140;28;20030;-31
2023/05/21 00:37:02;;;;;;;2.95;2.80;;;;;;;;;;4995148;28;20050;-30
2023/05/21 00:39:28;;;;;;;2.70;2.60;;;;;;;;;;4995081;28;20027;-29
2023/05/21 00:41:55;;;;;;;2.55;2.45;;;;;;;;;;4995011;28;20034;-31
2023/05/21 00:44:22;;;;;;;2.90;2.80;;;;;;;;;;4995201;28;20064;-28
2023/05/21 00:46:52;;;;;;;3.17;2.97;;;;;;;;;;4994954;28;20030;-30
2023/05/21 00:49:21;;;;;;;3.30;3.10;;;;;;;;;;4994916;28;20031;-28
2023/05/21 00:51:47;;;;;;;2.65;2.55;;;;;;;;;;4995196;28;20055;-30
2023/05/21 00:54:13;;;;;;;3.15;2.95;;;;;;;;;;4995076;28;20349;-27
2023/05/21 00:56:39;;;;;;;2.80;2.70;;;;;;;;;;4994949;28;20097;-29
2023/05/21 00:59:05;;;;;;;3.03;2.83;;;;;;;;;;4977826;28;20417;-29
2023/05/21 01:01:35;;;;;;;2.72;2.63;;;;;;;;;;4997858;28;20026;-29
2023/05/21 01:04:01;;;;;;;3.20;3.00;;;;;;;;;;4998313;28;20100;-29
2023/05/21 01:06:27;;;;;;;2.67;2.58;;;;;;;;;;4999163;28;20037;-28
2023/05/21 01:08:57;;;;;;;3.08;2.88;;;;;;;;;;4998612;28;20029;-30
2023/05/21 01:11:31;;;;;;;2.80;2.67;;;;;;;;;;4998652;28;20594;-29
2023/05/21 01:13:57;;;;;;;2.67;2.58;;;;;;;;;;4981576;28;20264;-29
2023/05/21 01:16:23;;;;;;;3.03;2.83;;;;;;;;;;4998541;28;20060;-31
2023/05/21 01:18:50;;;;;;;2.58;2.40;;;;;;;;;;4998961;28;20038;-30
2023/05/21 01:21:17;;;;;;;3.13;2.92;;;;;;;;;;4998371;28;20034;-29
2023/05/21 01:23:44;;;;;;;2.80;2.70;;;;;;;;;;4998223;28;20149;-30
2023/05/21 01:26:11;;;;;;;2.90;2.80;;;;;;;;;;4998537;28;20049;-30
2023/05/21 01:28:37;;;;;;;2.78;2.67;;;;;;;;;;4998248;28;20138;-30
2023/05/21 01:31:08;;;;;;;2.70;2.60;;;;;;;;;;4998478;28;20073;-31
2023/05/21 01:33:38;;;;;;;2.90;2.80;;;;;;;;;;4998487;28;20077;-30
2023/05/21 01:36:10;;;;;;;2.70;2.60;;;;;;;;;;4998186;28;20050;-31
2023/05/21 01:38:40;;;;;;;2.88;2.67;;;;;;;;;;4998396;28;20026;-28
2023/05/21 01:41:09;;;;;;;2.90;2.70;;;;;;;;;;4998345;28;20038;-30
2023/05/21 01:43:37;;;;;;;2.85;2.75;;;;;;;;;;4997830;28;20063;-30
2023/05/21 01:46:04;;;;;;;3.15;2.95;;;;;;;;;;4998495;28;20027;-30
2023/05/21 01:48:31;;;;;;;3.05;2.85;;;;;;;;;;4997887;28;20364;-31
2023/05/21 01:50:58;;;;;;;2.58;2.47;;;;;;;;;;4997864;28;20054;-28
2023/05/21 01:53:24;;;;;;;2.80;2.70;;;;;;;;;;4997834;28;20105;-31
2023/05/21 01:55:50;;;;;;;2.75;2.55;;;;;;;;;;4980876;28;20026;-31
2023/05/21 01:58:17;;;;;;;2.50;2.40;;;;;;;;;;4997743;28;20037;-29
2023/05/21 02:00:44;;;;;;;2.70;2.60;;;;;;;;;;4998213;28;20362;-29
2023/05/21 02:03:10;;;;;;;2.60;2.50;;;;;;;;;;4997483;28;20018;-30
2023/05/21 02:05:37;;;;;;;2.90;2.80;;;;;;;;;;4997579;28;20042;-29
2023/05/21 02:08:04;;;;;;;3.15;2.95;;;;;;;;;;4997527;28;20030;-31
2023/05/21 02:10:30;;;;;;;2.55;2.45;;;;;;;;;;4997518;28;20029;-29
2023/05/21 02:12:56;;;;;;;3.25;3.05;;;;;;;;;;4996529;28;20022;-29
2023/05/21 02:15:23;;;;;;;2.70;2.50;;;;;;;;;;4997665;28;20414;-30
2023/05/21 02:17:50;;;;;;;2.63;2.45;;;;;;;;;;4980798;28;20113;-30
2023/05/21 02:20:16;;;;;;;3.35;3.15;;;;;;;;;;4997207;28;20030;-29
2023/05/21 02:22:43;;;;;;;2.83;2.70;;;;;;;;;;4997137;28;20365;-30
2023/05/21 02:25:10;;;;;;;2.70;2.60;;;;;;;;;;4997201;28;20023;-29
2023/05/21 02:27:37;;;;;;;2.80;2.70;;;;;;;;;;4997686;28;20027;-31
2023/05/21 02:30:04;;;;;;;2.45;2.35;;;;;;;;;;4997151;28;20022;-31
2023/05/21 02:32:31;;;;;;;2.80;2.70;;;;;;;;;;4980099;28;20023;-27
2023/05/21 02:34:57;;;;;;;2.20;2.10;;;;;;;;;;4997014;28;20023;-31
2023/05/21 02:37:26;;;;;;;2.58;2.45;;;;;;;;;;4996914;28;20026;-28
2023/05/21 02:39:52;;;;;;;2.25;2.15;;;;;;;;;;4996870;28;20041;-30
2023/05/21 02:42:18;;;;;;;2.63;2.53;;;;;;;;;;4996799;28;20034;-27
2023/05/21 02:44:44;;;;;;;2.50;2.40;;;;;;;;;;4997036;28;20030;-30
2023/05/21 02:47:11;;;;;;;2.70;2.58;;;;;;;;;;4996795;28;20109;-30
2023/05/21 02:49:37;;;;;;;2.85;2.75;;;;;;;;;;4997024;28;20050;-28
2023/05/21 02:52:04;;;;;;;2.83;2.72;;;;;;;;;;4996945;28;20027;-30
2023/05/21 02:54:30;;;;;;;2.78;2.65;;;;;;;;;;4997167;28;20101;-30
2023/05/21 02:56:56;;;;;;;3.13;3.03;;;;;;;;;;4979453;28;20064;-30
2023/05/21 02:59:23;;;;;;;2.28;2.17;;;;;;;;;;4996539;28;20084;-28
2023/05/21 03:01:49;;;;;;;2.40;2.30;;;;;;;;;;4996765;28;20097;-28
2023/05/21 03:04:20;;;;;;;2.97;2.88;;;;;;;;;;4996150;28;20105;-28
2023/05/21 03:06:47;;;;;;;2.15;2.05;;;;;;;;;;4996685;28;20409;-29
2023/05/21 03:09:13;;;;;;;2.88;2.67;;;;;;;;;;4996380;28;20356;-30
2023/05/21 03:11:39;;;;;;;2.63;2.53;;;;;;;;;;4996329;28;20073;-29
2023/05/21 03:14:06;;;;;;;2.17;2.08;;;;;;;;;;4996414;28;20042;-28
2023/05/21 03:16:33;;;;;;;2.42;2.33;;;;;;;;;;4996261;28;20034;-31
2023/05/21 03:19:00;;;;;;;2.42;2.33;;;;;;;;;;4996452;28;20405;-32
2023/05/21 03:21:28;;;;;;;2.25;2.15;;;;;;;;;;4996086;28;20034;-31
2023/05/21 03:23:57;;;;;;;2.70;2.60;;;;;;;;;;4995991;28;20052;-31
2023/05/21 03:26:26;;;;;;;2.65;2.55;;;;;;;;;;4996296;28;20015;-29
2023/05/21 03:28:52;;;;;;;2.65;2.55;;;;;;;;;;4996039;28;20373;-30
2023/05/21 03:31:18;;;;;;;2.50;2.40;;;;;;;;;;4996250;28;20033;-28
2023/05/21 03:33:44;;;;;;;2.50;2.40;;;;;;;;;;4996416;28;20066;-29
2023/05/21 03:36:11;;;;;;;2.30;2.20;;;;;;;;;;4996162;28;20069;-29
2023/05/21 03:38:37;;;;;;;2.58;2.47;;;;;;;;;;4995904;28;20030;-28
2023/05/21 03:41:03;;;;;;;2.60;2.50;;;;;;;;;;4995800;28;20397;-32
2023/05/21 03:43:29;;;;;;;2.85;2.70;;;;;;;;;;4995639;28;20026;-28
2023/05/21 03:45:55;;;;;;;2.20;2.10;;;;;;;;;;4995728;28;20077;-29
2023/05/21 03:48:21;;;;;;;2.42;2.33;;;;;;;;;;4995691;28;20053;-29
2023/05/21 03:50:47;;;;;;;3.05;2.88;;;;;;;;;;4995959;28;20095;-30
2023/05/21 03:53:13;;;;;;;2.40;2.30;;;;;;;;;;4995599;28;20030;-31
2023/05/21 03:55:40;;;;;;;2.50;2.40;;;;;;;;;;4978449;28;20031;-32
2023/05/21 03:58:06;;;;;;;2.28;2.17;;;;;;;;;;4995507;28;20033;-30
2023/05/21 04:00:33;;;;;;;3.03;2.90;;;;;;;;;;4995756;28;20026;-29
2023/05/21 04:02:59;;;;;;;2.65;2.55;;;;;;;;;;4995228;28;20105;-28
2023/05/21 04:05:25;;;;;;;2.17;2.08;;;;;;;;;;4995311;28;20050;-30
2023/05/21 04:07:52;;;;;;;2.30;2.20;;;;;;;;;;4995429;28;20019;-31
2023/05/21 04:10:19;;;;;;;2.47;2.38;;;;;;;;;;4996094;28;20057;-31
2023/05/21 04:12:47;;;;;;;2.40;2.30;;;;;;;;;;4995218;28;20028;-28
2023/05/21 04:15:17;;;;;;;2.30;2.20;;;;;;;;;;4995209;28;20034;-30
2023/05/21 04:17:44;;;;;;;2.42;2.33;;;;;;;;;;4995502;28;20085;-29
2023/05/21 04:20:15;;;;;;;2.70;2.50;;;;;;;;;;4995193;28;20023;-31
2023/05/21 04:22:44;;;;;;;2.42;2.33;;;;;;;;;;4995168;28;20481;-30
2023/05/21 04:25:11;;;;;;;2.47;2.38;;;;;;;;;;4995113;28;20029;-30
2023/05/21 04:27:37;;;;;;;2.28;2.17;;;;;;;;;;4995195;28;20031;-30
2023/05/21 04:30:04;;;;;;;2.25;2.15;;;;;;;;;;4978094;28;20023;-31
2023/05/21 04:32:32;;;;;;;2.30;2.20;;;;;;;;;;4995054;28;20033;-32
2023/05/21 04:34:59;;;;;;;2.08;1.98;;;;;;;;;;4995089;28;20050;-30
2023/05/21 04:37:26;;;;;;;2.10;2.00;;;;;;;;;;4999289;28;20093;-29
2023/05/21 04:39:54;;;;;;;2.78;2.60;;;;;;;;;;4999681;28;20036;-30
2023/05/21 04:42:23;;;;;;;2.30;2.20;;;;;;;;;;4999245;28;20057;-29
2023/05/21 04:44:49;;;;;;;2.20;2.10;;;;;;;;;;4999017;28;20449;-27
2023/05/21 04:47:18;;;;;;;2.40;2.30;;;;;;;;;;4999029;28;20088;-31
2023/05/21 04:49:45;;;;;;;2.78;2.67;;;;;;;;;;4998983;28;20018;-33
2023/05/21 04:52:11;;;;;;;2.72;2.53;;;;;;;;;;4999432;28;20053;-31
2023/05/21 04:54:40;;;;;;;2.22;2.13;;;;;;;;;;4999161;28;20468;-31
2023/05/21 04:57:07;;;;;;;2.58;2.47;;;;;;;;;;4999117;28;20034;-28
2023/05/21 04:59:33;;;;;;;2.33;2.22;;;;;;;;;;4998803;28;20030;-31
2023/05/21 05:01:59;;;;;;;2.35;2.25;;;;;;;;;;4998988;28;20026;-29
2023/05/21 05:04:25;;;;;;;2.15;2.05;;;;;;;;;;4981315;28;20099;-31
2023/05/21 05:06:52;;;;;;;1.95;1.85;;;;;;;;;;4998679;28;20030;-27
2023/05/21 05:09:20;;;;;;;2.80;2.50;;;;;;;;;;4998638;28;20034;-30
2023/05/21 05:11:46;;;;;;;2.10;2.00;;;;;;;;;;4998833;28;20030;-31
2023/05/21 05:14:12;;;;;;;2.75;2.65;;;;;;;;;;4998761;28;20353;-27
2023/05/21 05:16:38;;;;;;;2.20;2.10;;;;;;;;;;4998521;28;20041;-29
2023/05/21 05:19:04;;;;;;;2.35;2.25;;;;;;;;;;4998527;28;20335;-31
2023/05/21 05:21:32;;;;;;;2.40;2.30;;;;;;;;;;4998657;28;20026;-32
2023/05/21 05:23:58;;;;;;;2.22;2.13;;;;;;;;;;4998221;28;20416;-28
2023/05/21 05:26:24;;;;;;;1.92;1.83;;;;;;;;;;4998619;28;20445;-28
2023/05/21 05:28:50;;;;;;;2.30;2.20;;;;;;;;;;4998516;28;20019;-30
2023/05/21 05:31:16;;;;;;;2.10;2.00;;;;;;;;;;4998237;28;20095;-32
2023/05/21 05:33:42;;;;;;;2.38;2.28;;;;;;;;;;4998357;28;20050;-33
2023/05/21 05:36:08;;;;;;;2.25;2.15;;;;;;;;;;4998411;28;20097;-32
2023/05/21 05:38:35;;;;;;;2.30;2.20;;;;;;;;;;4998118;28;20109;-30
2023/05/21 05:41:01;;;;;;;2.00;1.90;;;;;;;;;;4998301;28;20380;-30
2023/05/21 05:43:27;;;;;;;1.90;1.80;;;;;;;;;;4997784;28;20121;-28
2023/05/21 05:45:53;;;;;;;2.45;2.35;;;;;;;;;;4998336;28;20105;-31
2023/05/21 05:48:19;;;;;;;2.10;2.00;;;;;;;;;;4997763;28;20507;-31
2023/05/21 05:50:45;;;;;;;2.05;1.95;;;;;;;;;;4997847;28;20080;-29
2023/05/21 05:53:14;;;;;;;2.58;2.47;;;;;;;;;;4997753;28;20026;-30
2023/05/21 05:55:40;;;;;;;2.10;2.00;;;;;;;;;;4998384;28;20073;-31
2023/05/21 05:58:06;;;;;;;2.63;2.53;;;;;;;;;;4997787;28;20023;-30
2023/05/21 06:00:33;;;;;;;1.92;1.83;;;;;;;;;;4997950;28;20041;-31
2023/05/21 06:02:59;;;;;;;2.45;2.35;;;;;;;;;;4997687;28;20418;-30
2023/05/21 06:05:25;;;;;;;2.83;2.72;;;;;;;;;;4980192;28;20133;-30
2023/05/21 06:07:51;;;;;;;2.35;2.25;;;;;;;;;;4998076;28;20101;-28
2023/05/21 06:10:19;;;;;;;2.20;2.10;;;;;;;;;;4997519;28;20052;-30
2023/05/21 06:12:45;;;;;;;2.33;2.22;;;;;;;;;;4997328;28;20033;-30
2023/05/21 06:15:13;;;;;;;2.30;2.20;;;;;;;;;;4997725;28;20105;-31
2023/05/21 06:17:39;;;;;;;2.45;2.35;;;;;;;;;;4997327;28;20105;-30
2023/05/21 06:20:06;;;;;;;2.80;2.65;;;;;;;;;;4997617;28;20023;-28
2023/05/21 06:22:32;;;;;;;2.60;2.50;;;;;;;;;;4997416;28;20038;-31
2023/05/21 06:24:58;;;;;;;2.30;2.20;;;;;;;;;;4997128;28;20034;-31
2023/05/21 06:27:24;;;;;;;2.42;2.33;;;;;;;;;;4997226;28;20026;-30
2023/05/21 06:29:51;;;;;;;2.50;2.40;;;;;;;;;;4997181;28;20389;-29
2023/05/21 06:32:17;;;;;;;2.33;2.22;;;;;;;;;;4997092;28;20073;-30
2023/05/21 06:34:43;;;;;;;2.40;2.30;;;;;;;;;;4997104;28;20045;-29
2023/05/21 06:37:09;;;;;;;2.38;2.28;;;;;;;;;;4997554;28;20022;-32
2023/05/21 06:39:35;;;;;;;2.53;2.42;;;;;;;;;;4979785;28;20026;-31
2023/05/21 06:42:01;;;;;;;2.47;2.38;;;;;;;;;;4996891;28;20030;-28
2023/05/21 06:44:27;;;;;;;2.55;2.45;;;;;;;;;;4997027;28;20311;-31
2023/05/21 06:46:53;;;;;;;2.33;2.22;;;;;;;;;;4997429;28;20080;-29
2023/05/21 06:49:19;;;;;;;2.20;2.10;;;;;;;;;;4996792;28;20480;-30
2023/05/21 06:51:46;;;;;;;1.90;1.80;;;;;;;;;;4996762;28;20034;-33
2023/05/21 06:54:12;;;;;;;1.98;1.88;;;;;;;;;;4996648;28;20022;-31
2023/05/21 06:56:38;;;;;;;2.20;2.10;;;;;;;;;;4996925;28;20034;-30
2023/05/21 06:59:04;;;;;;;2.50;2.40;;;;;;;;;;4996308;28;20450;-28
2023/05/21 07:01:31;;;;;;;2.20;2.10;;;;;;;;;;4997291;28;20026;-32
2023/05/21 07:03:57;;;;;;;2.20;2.10;;;;;;;;;;4996336;28;20363;-29
2023/05/21 07:06:23;;;;;;;2.17;2.08;;;;;;;;;;4996475;28;20097;-31
2023/05/21 07:08:49;;;;;;;2.30;2.20;;;;;;;;;;4996704;28;20361;-30
2023/05/21 07:11:15;;;;;;;2.10;2.00;;;;;;;;;;4996628;28;20353;-31
2023/05/21 07:13:41;;;;;;;2.45;2.35;;;;;;;;;;4996289;28;20026;-32
2023/05/21 07:16:07;;;;;;;2.58;2.45;;;;;;;;;;4996566;28;20046;-30
2023/05/21 07:18:33;;;;;;;2.15;2.05;;;;;;;;;;4996224;28;20077;-30
2023/05/21 07:21:00;;;;;;;2.25;2.15;;;;;;;;;;4996210;28;20033;-29
2023/05/21 07:23:26;;;;;;;2.30;2.20;;;;;;;;;;4978854;28;20052;-31
2023/05/21 07:25:52;;;;;;;2.47;2.38;;;;;;;;;;4996373;28;20027;-30
2023/05/21 07:28:19;;;;;;;2.25;2.15;;;;;;;;;;4978855;28;20449;-30
2023/05/21 07:30:45;;;;;;;2.40;2.30;;;;;;;;;;4996298;28;20354;-29
2023/05/21 07:33:11;;;;;;;2.60;2.50;;;;;;;;;;4995976;28;20026;-30
2023/05/21 07:35:37;;;;;;;2.20;2.08;;;;;;;;;;4995805;28;20023;-31
2023/05/21 07:38:04;;;;;;;2.40;2.30;;;;;;;;;;4995839;28;20124;-28
2023/05/21 07:40:30;;;;;;;2.75;2.55;;;;;;;;;;4996134;28;20033;-32
2023/05/21 07:42:56;;;;;;;2.40;2.30;;;;;;;;;;4995702;28;20049;-30
2023/05/21 07:45:22;;;;;;;2.25;2.15;;;;;;;;;;4995993;28;20344;-29
2023/05/21 07:47:48;;;;;;;2.15;2.05;;;;;;;;;;4995751;28;20027;-32
2023/05/21 07:50:14;;;;;;;2.42;2.33;;;;;;;;;;4995951;28;20031;-31
2023/05/21 07:52:40;;;;;;;2.97;2.78;;;;;;;;;;4995607;28;20434;-31
2023/05/21 07:55:08;;;;;;;2.55;2.45;;;;;;;;;;4995873;28;20030;-29
2023/05/21 07:57:34;;;;;;;2.28;2.17;;;;;;;;;;4995830;28;20089;-31
2023/05/21 08:00:00;;;;;;;2.60;2.50;;;;;;;;;;4996102;28;20481;-30
2023/05/21 08:02:26;;;;;;;2.20;2.10;;;;;;;;;;4978264;28;20053;-29
2023/05/21 08:04:53;;;;;;;2.03;1.92;;;;;;;;;;4995246;28;20101;-31
2023/05/21 08:07:20;;;;;;;2.67;2.58;;;;;;;;;;4995372;28;20023;-31
2023/05/21 08:09:47;;;;;;;2.33;2.22;;;;;;;;;;4995143;28;20022;-31
2023/05/21 08:12:14;;;;;;;2.40;2.30;;;;;;;;;;4995002;28;20019;-33
2023/05/21 08:14:41;;;;;;;2.40;2.30;;;;;;;;;;4995565;28;20054;-30
2023/05/21 08:17:10;;;;;;;2.25;2.15;;;;;;;;;;4995239;28;20022;-30
2023/05/21 08:19:36;;;;;;;2.35;2.15;;;;;;;;;;4995809;28;20085;-30
2023/05/21 08:22:02;;;;;;;2.65;2.47;;;;;;;;;;4995463;28;20105;-29
2023/05/21 08:24:28;;;;;;;2.22;2.13;;;;;;;;;;4995154;28;20080;-30
2023/05/21 08:26:54;;;;;;;2.15;2.05;;;;;;;;;;4995780;28;20019;-31
2023/05/21 08:29:20;;;;;;;2.55;2.45;;;;;;;;;;4995452;28;20029;-27
2023/05/21 08:31:47;;;;;;;2.72;2.55;;;;;;;;;;4995164;28;20038;-29
2023/05/21 08:34:13;;;;;;;2.40;2.30;;;;;;;;;;4995089;28;20030;-28
2023/05/21 08:36:42;;;;;;;2.80;2.60;;;;;;;;;;4995432;28;20058;-27
2023/05/21 08:39:08;;;;;;;2.28;2.17;;;;;;;;;;4995129;28;20110;-30
2023/05/21 08:41:35;;;;;;;2.38;2.28;;;;;;;;;;4995139;28;20030;-30
2023/05/21 08:44:02;;;;;;;2.42;2.33;;;;;;;;;;4994981;28;20130;-31
2023/05/21 08:46:35;;;;;;;2.28;2.17;;;;;;;;;;4995032;28;20026;-30
2023/05/21 08:49:02;;;;;;;2.50;2.40;;;;;;;;;;4995586;28;20114;-29
2023/05/21 08:51:28;;;;;;;2.65;2.55;;;;;;;;;;4995002;28;20101;-30
2023/05/21 08:53:55;;;;;;;2.38;2.28;;;;;;;;;;4994935;28;20053;-32
2023/05/21 08:56:23;;;;;;;2.30;2.20;;;;;;;;;;4994923;28;20022;-31
2023/05/21 08:58:50;;;;;;;2.47;2.38;;;;;;;;;;4978157;28;20030;-32
2023/05/21 09:01:18;;;;;;;2.30;2.20;;;;;;;;;;4995176;28;20030;-29
2023/05/21 09:03:45;;;;;;;2.42;2.33;;;;;;;;;;4994527;28;20081;-31
2023/05/21 09:06:12;;;;;;;2.20;2.10;;;;;;;;;;4994850;28;20022;-30
2023/05/21 09:08:43;;;;;;;2.33;2.22;;;;;;;;;;4994822;28;20176;-30
2023/05/21 09:11:10;;;;;;;2.35;2.25;;;;;;;;;;4994856;28;20029;-31
2023/05/21 09:13:38;;;;;;;2.28;2.17;;;;;;;;;;4994963;28;20117;-30
2023/05/21 09:16:05;;;;;;;2.17;2.08;;;;;;;;;;4994758;28;20077;-28
2023/05/21 09:18:31;;;;;;;2.40;2.30;;;;;;;;;;4994763;28;20041;-29
2023/05/21 09:20:58;;;;;;;2.60;2.50;;;;;;;;;;4995268;28;20439;-31
2023/05/21 09:23:28;;;;;;;3.03;2.72;;;;;;;;;;4998059;28;20125;-31
2023/05/21 09:25:54;;;;;;;2.67;2.58;;;;;;;;;;4998430;28;20033;-30
2023/05/21 09:28:20;;;;;;;2.25;2.15;;;;;;;;;;4998295;28;20025;-31
2023/05/21 09:30:52;;;;;;;2.70;2.50;;;;;;;;;;4981139;28;20382;-31
2023/05/21 09:33:25;;;;;;;2.38;2.28;;;;;;;;;;4998392;28;20125;-32
2023/05/21 09:35:52;;;;;;;2.30;2.20;;;;;;;;;;4998139;28;20041;-26
2023/05/21 09:38:21;;;;;;;2.50;2.40;;;;;;;;;;4998389;28;20362;-28
2023/05/21 09:40:47;;;;;;;2.30;2.20;;;;;;;;;;4998118;28;20092;-30
2023/05/21 09:43:17;;;;;;;2.20;2.10;;;;;;;;;;4998015;28;20041;-30
2023/05/21 09:45:55;;;;;;;2.20;2.10;;;;;;;;;;4998543;28;20084;-31
2023/05/21 09:48:34;;;;;;;2.60;2.50;;;;;;;;;;4998215;28;20370;-31
2023/05/21 09:51:07;;;;;;;2.83;2.67;;;;;;;;;;4997833;28;20014;-30
2023/05/21 09:53:34;;;;;;;2.38;2.28;;;;;;;;;;4998002;28;20038;-30
2023/05/21 09:56:00;;;;;;;2.42;2.33;;;;;;;;;;4997838;28;20462;-30
2023/05/21 09:58:26;;;;;;;2.28;2.17;;;;;;;;;;4997740;28;20049;-32
2023/05/21 10:00:52;;;;;;;2.85;2.65;;;;;;;;;;4997968;28;20026;-31
2023/05/21 10:03:22;;;;;;;2.88;2.78;;;;;;;;;;4997307;28;20030;-32
2023/05/21 10:05:49;;;;;;;2.15;2.05;;;;;;;;;;4997986;28;20026;-31
2023/05/21 10:08:16;;;;;;;2.65;2.55;;;;;;;;;;4997611;28;20069;-30
2023/05/21 10:10:42;;;;;;;2.35;2.25;;;;;;;;;;4998078;28;20381;-31
2023/05/21 10:13:10;;;;;;;2.13;2.03;;;;;;;;;;4997416;28;20018;-29
2023/05/21 10:15:42;;;;;;;2.83;2.72;;;;;;;;;;4997384;28;20516;-28
2023/05/21 10:18:10;;;;;;;2.47;2.38;;;;;;;;;;4997479;28;20041;-28
2023/05/21 10:20:37;;;;;;;2.55;2.45;;;;;;;;;;4998116;28;20394;-31
2023/05/21 10:23:04;;;;;;;2.58;2.47;;;;;;;;;;4997455;28;20026;-27
2023/05/21 10:25:34;;;;;;;2.70;2.50;;;;;;;;;;4997502;28;20104;-30
2023/05/21 10:28:00;;;;;;;2.60;2.50;;;;;;;;;;4997254;28;20023;-31
2023/05/21 10:30:27;;;;;;;2.20;2.10;;;;;;;;;;4997215;28;20054;-28
2023/05/21 10:32:55;;;;;;;2.63;2.53;;;;;;;;;;4996723;28;20023;-31
2023/05/21 10:35:22;;;;;;;2.85;2.65;;;;;;;;;;4996798;28;20030;-29
2023/05/21 10:37:48;;;;;;;2.22;2.13;;;;;;;;;;4997029;28;20409;-30
2023/05/21 10:40:15;;;;;;;2.70;2.60;;;;;;;;;;4997028;28;20041;-33
2023/05/21 10:42:46;;;;;;;2.80;2.60;;;;;;;;;;4997139;28;20356;-31
2023/05/21 10:45:16;;;;;;;2.53;2.42;;;;;;;;;;4997128;28;20027;-31
2023/05/21 10:48:05;;;;;;;2.33;2.22;;;;;;;;;;4997376;28;20101;-30
2023/05/21 10:50:43;;;;;;;2.67;2.58;;;;;;;;;;4997117;28;20027;-32
2023/05/21 10:53:24;;;;;;;3.00;2.80;;;;;;;;;;4996986;28;20027;-31
2023/05/21 10:55:50;;;;;;;;;;;;;;;;;;4997109;28;20042;-32
2023/05/21 10:58:22;;;;;;;2.78;2.58;;;;;;;;;;4996856;28;19906;-29
2023/05/21 11:00:49;;;;;;;2.58;2.47;;;;;;;;;;4997087;28;20050;-27
2023/05/21 11:03:15;;;;;;;2.92;2.58;;;;;;;;;;4996488;28;20350;-31
2023/05/21 11:05:54;;;;;;;3.00;2.90;;;;;;;;;;4996471;28;20033;-29
2023/05/21 11:08:21;;;;;;;2.78;2.60;;;;;;;;;;4996480;28;20018;-31
2023/05/21 11:10:51;;;;;;;2.55;2.45;;;;;;;;;;4996373;28;20027;-29
2023/05/21 11:13:20;;;;;;;2.60;2.50;;;;;;;;;;4996446;28;20061;-30
2023/05/21 11:16:00;;;;;;;2.92;2.72;;;;;;;;;;4996519;28;20285;-32
2023/05/21 11:18:38;;;;;;;2.28;2.17;;;;;;;;;;4996146;28;20037;-31
2023/05/21 11:21:05;;;;;;;2.72;2.63;;;;;;;;;;4996487;28;20421;-28
2023/05/21 11:23:50;;;;;;;2.97;2.83;;;;;;;;;;4996020;28;20339;-32
2023/05/21 11:26:36;;;;;;;2.70;2.60;;;;;;;;;;4996134;28;20501;-30
2023/05/21 11:29:06;;;;;;;2.72;2.60;;;;;;;;;;4965946;28;20518;-29
2023/05/21 11:31:37;;;;;;;3.35;3.15;;;;;;;;;;4996296;28;20108;-31
2023/05/21 11:34:13;;;;;;;3.10;2.90;;;;;;;;;;4995944;28;20030;-29
2023/05/21 11:37:03;;;;;;;2.80;2.70;;;;;;;;;;4995808;28;20458;-28
2023/05/21 11:39:29;;;;;;;3.17;2.97;;;;;;;;;;4960529;28;20043;-28
2023/05/21 11:41:59;;;;;;;3.03;2.83;;;;;;;;;;4995794;28;20050;-31
2023/05/21 11:44:40;;;;;;;3.40;3.20;;;;;;;;;;4995807;28;20058;-31
2023/05/21 11:47:10;;;;;;;2.95;2.83;;;;;;;;;;4995781;28;20026;-29
2023/05/21 11:49:36;;;;;;;2.85;2.75;;;;;;;;;;4995711;28;20026;-32
2023/05/21 11:52:03;;;;;;;2.85;2.75;;;;;;;;;;4995575;28;20018;-31
2023/05/21 11:54:35;;;;;;;2.85;2.75;;;;;;;;;;4995633;28;20026;-30
2023/05/21 11:57:02;;;;;;;2.80;2.70;;;;;;;;;;4995538;28;20485;-32
2023/05/21 11:59:28;;;;;;;3.08;2.88;;;;;;;;;;4995766;28;20034;-28
2023/05/21 12:01:55;;;;;;;2.80;2.60;;;;;;;;;;4995476;28;20094;-30
2023/05/21 12:04:21;;;;;;;2.80;2.70;;;;;;;;;;4995169;28;20050;-31
2023/05/21 12:06:49;;;;;;;3.17;2.72;;;;;;;;;;4995481;28;20034;-31
2023/05/21 12:09:15;;;;;;;2.60;2.50;;;;;;;;;;4995676;28;20022;-30
2023/05/21 12:11:41;;;;;;;2.90;2.80;;;;;;;;;;4978241;28;20155;-30
2023/05/21 12:14:08;;;;;;;2.80;2.70;;;;;;;;;;4995288;28;20030;-30
2023/05/21 12:16:35;;;;;;;2.38;2.28;;;;;;;;;;4995283;28;20027;-32
2023/05/21 12:19:05;;;;;;;2.83;2.72;;;;;;;;;;4995322;28;20027;-29
2023/05/21 12:21:31;;;;;;;2.60;2.50;;;;;;;;;;4978132;28;20483;-32
2023/05/21 12:23:57;;;;;;;2.78;2.67;;;;;;;;;;4995154;28;20361;-30
2023/05/21 12:26:24;;;;;;;3.20;3.00;;;;;;;;;;4995511;28;20053;-29
2023/05/21 12:28:51;;;;;;;2.65;2.50;;;;;;;;;;4995219;28;20369;-32
2023/05/21 12:31:17;;;;;;;2.85;2.75;;;;;;;;;;4995195;28;20584;-30
2023/05/21 12:33:53;;;;;;;2.88;2.78;;;;;;;;;;4995127;28;20110;-29
2023/05/21 12:36:30;;;;;;;2.95;2.85;;;;;;;;;;4995431;28;20030;-30
2023/05/21 12:38:59;;;;;;;3.20;3.00;;;;;;;;;;4995395;28;20030;-29
2023/05/21 12:41:26;;;;;;;3.38;3.17;;;;;;;;;;4995108;28;20036;-29
2023/05/21 12:43:52;;;;;;;2.95;2.80;;;;;;;;;;4994893;28;20026;-27
2023/05/21 12:46:19;;;;;;;2.50;2.40;;;;;;;;;;4995064;28;20061;-31
2023/05/21 12:48:54;;;;;;;2.78;2.67;;;;;;;;;;4995237;28;20032;-27
2023/05/21 12:51:21;;;;;;;3.10;2.90;;;;;;;;;;4994922;28;20030;-30
2023/05/21 12:53:47;;;;;;;3.20;3.03;;;;;;;;;;4994926;28;20026;-32
2023/05/21 12:56:14;;;;;;;2.95;2.75;;;;;;;;;;4977974;28;20026;-29
2023/05/21 12:58:40;;;;;;;2.88;2.78;;;;;;;;;;4998859;28;20046;-30
2023/05/21 13:01:07;;;;;;;3.17;3.00;;;;;;;;;;4999097;28;20030;-31
2023/05/21 13:03:34;;;;;;;2.80;2.70;;;;;;;;;;4998701;28;20188;-30
2023/05/21 13:06:00;;;;;;;2.72;2.53;;;;;;;;;;4998698;28;20037;-32
2023/05/21 13:08:26;;;;;;;2.95;2.83;;;;;;;;;;4998713;28;20018;-30
2023/05/21 13:10:53;;;;;;;2.85;2.75;;;;;;;;;;4998649;28;20101;-31
2023/05/21 13:13:19;;;;;;;3.50;3.30;;;;;;;;;;4998861;28;20105;-31
2023/05/21 13:15:45;;;;;;;3.08;2.97;;;;;;;;;;4998552;28;20022;-27
2023/05/21 13:18:11;;;;;;;3.60;3.40;;;;;;;;;;4998524;28;20022;-30
2023/05/21 13:20:37;;;;;;;3.00;2.80;;;;;;;;;;4998509;28;20500;-27
2023/05/21 13:23:04;;;;;;;3.20;3.05;;;;;;;;;;4998370;28;20031;-31
2023/05/21 13:25:31;;;;;;;3.20;3.00;;;;;;;;;;4998241;28;20477;-32
2023/05/21 13:28:01;;;;;;;3.15;2.97;;;;;;;;;;4998378;28;20053;-29
2023/05/21 13:30:28;;;;;;;2.78;2.67;;;;;;;;;;4998642;28;20025;-31
2023/05/21 13:32:54;;;;;;;3.13;2.92;;;;;;;;;;4998343;28;20093;-30
2023/05/21 13:35:20;;;;;;;3.28;3.08;;;;;;;;;;4998260;28;20026;-27
2023/05/21 13:37:46;;;;;;;3.08;2.88;;;;;;;;;;4998117;28;20058;-29
2023/05/21 13:40:13;;;;;;;3.20;3.10;;;;;;;;;;4998399;28;20450;-31
2023/05/21 13:42:40;;;;;;;3.28;3.08;;;;;;;;;;4998005;28;20109;-32
2023/05/21 13:45:07;;;;;;;3.33;3.20;;;;;;;;;;4997968;28;20034;-28
2023/05/21 13:47:33;;;;;;;3.58;3.38;;;;;;;;;;4997972;28;20069;-28
2023/05/21 13:49:59;;;;;;;3.95;3.75;;;;;;;;;;4997981;28;20026;-31
2023/05/21 13:52:25;;;;;;;3.42;3.22;;;;;;;;;;4997883;28;20042;-31
2023/05/21 13:54:51;;;;;;;3.10;2.97;;;;;;;;;;4998421;28;20022;-28
2023/05/21 13:57:18;;;;;;;2.95;2.83;;;;;;;;;;4997836;28;20034;-29
2023/05/21 13:59:44;;;;;;;3.20;3.00;;;;;;;;;;4998010;28;20026;-29
2023/05/21 14:02:10;;;;;;;3.85;3.65;;;;;;;;;;4998200;28;20030;-29
2023/05/21 14:04:36;;;;;;;3.58;3.33;;;;;;;;;;4997420;28;20046;-27
2023/05/21 14:07:03;;;;;;;3.05;2.95;;;;;;;;;;4997868;28;20037;-32
2023/05/21 14:09:30;;;;;;;3.40;3.20;;;;;;;;;;4996263;28;20026;-31
2023/05/21 14:11:56;;;;;;;3.10;3.00;;;;;;;;;;4997472;28;20061;-31
2023/05/21 14:14:22;;;;;;;3.65;3.45;;;;;;;;;;4997762;28;20037;-28
2023/05/21 14:16:49;;;;;;;3.80;3.60;;;;;;;;;;4980313;28;20029;-30
2023/05/21 14:19:15;;;;;;;3.25;3.05;;;;;;;;;;4997461;28;20038;-30
2023/05/21 14:21:42;;;;;;;3.72;3.53;;;;;;;;;;4997897;28;20030;-31
2023/05/21 14:24:08;;;;;;;3.78;3.47;;;;;;;;;;4997494;28;20058;-32
2023/05/21 14:26:35;;;;;;;3.67;3.47;;;;;;;;;;4997309;28;20023;-29
2023/05/21 14:29:01;;;;;;;3.17;2.97;;;;;;;;;;4997474;28;20240;-30
2023/05/21 14:31:28;;;;;;;3.47;3.28;;;;;;;;;;4997187;28;20037;-31
2023/05/21 14:33:54;;;;;;;3.50;3.30;;;;;;;;;;4997606;28;20037;-31
2023/05/21 14:36:20;;;;;;;3.45;3.25;;;;;;;;;;4997081;28;20045;-32
2023/05/21 14:38:46;;;;;;;3.30;3.10;;;;;;;;;;4997298;28;20030;-30
2023/05/21 14:41:12;;;;;;;3.38;3.17;;;;;;;;;;4997309;28;20026;-30
2023/05/21 14:43:38;;;;;;;3.55;3.35;;;;;;;;;;4997114;28;20026;-27